Jrs Merkur — V2FD8 — position and weather

sailwx.info

Track history (hours):
 
Tides and Currents Weather Stations Pressure Air Temp Water Temp Dewpoint Dewpoint Depression Visibility Wind Speed Wind Dir Waves Ship Positions

Jrs Merkur

Last reported at 2014-Dec-21 16:28 UTC. Time now 2014-Dec-21 17:18 UTC.
Position N 34°43' E 033°19'.

Length 107 m; draft 8.4 m.

Type: Cargo ship. MMSI: 305644000.

Date/timePositionNaut miles runAvg speedWind from/ knotsBaromVisibWave heightAir tempDewpointWater temp
2014-Dec-21 16:28N 34°43' E 033°19'0 0.0
2014-Dec-21 15:22N 34°43' E 033°19'0 0.0
2014-Dec-21 14:33N 34°43' E 033°19'3 3.5
2014-Dec-21 13:33N 34°40' E 033°20'7 6.6
2014-Dec-21 12:33N 34°35' E 033°15'7 7.0
2014-Dec-21 11:33N 34°31' E 033°07'9 9.3
2014-Dec-21 10:33N 34°30' E 032°56'1110.8
2014-Dec-21 09:33N 34°33' E 032°43'31210.3
2014-Dec-20 03:22N 36°27' E 026°47'910.4
2014-Dec-20 02:32N 36°34' E 026°40'1010.2
2014-Dec-20 01:33N 36°41' E 026°31'1210.5
2014-Dec-20 00:26N 36°49' E 026°20'1010.4
2014-Dec-19 23:25N 36°57' E 026°13'910.3
2014-Dec-19 22:33N 37°05' E 026°07'1110.6
2014-Dec-19 21:33N 37°15' E 026°01'1110.6
2014-Dec-19 20:33N 37°24' E 025°56'1110.8
2014-Dec-19 19:33N 37°34' E 025°50'1110.6
2014-Dec-19 18:33N 37°43' E 025°44'1110.6
2014-Dec-19 17:32N 37°53' E 025°38'12410.1
2014-Dec-19 05:10N 39°57' E 025°52'13910.2
2014-Dec-18 15:29N 40°53' E 028°39'1110.6
2014-Dec-18 14:29N 40°55' E 028°53'  
Track history (hours):
 
Tides and Currents Weather Stations Pressure Air Temp Water Temp Dewpoint Dewpoint Depression Visibility Wind Speed Wind Dir Waves Ship Positions

Jrs Merkur

Last reported at 2014-Dec-21 16:28 UTC. Time now 2014-Dec-21 17:18 UTC.
Position N 34°43' E 033°19'.

Length 107 m; draft 8.4 m.

Type: Cargo ship. MMSI: 305644000.

Date/timePositionNaut miles runAvg speedWind from/ knotsBaromVisibWave heightAir tempDewpointWater temp
2014-Dec-21 16:28N 34°43' E 033°19'0 0.0
2014-Dec-21 15:22N 34°43' E 033°19'0 0.0
2014-Dec-21 14:33N 34°43' E 033°19'3 3.5
2014-Dec-21 13:33N 34°40' E 033°20'7 6.6
2014-Dec-21 12:33N 34°35' E 033°15'7 7.0
2014-Dec-21 11:33N 34°31' E 033°07'9 9.3
2014-Dec-21 10:33N 34°30' E 032°56'1110.8
2014-Dec-21 09:33N 34°33' E 032°43'31210.3
2014-Dec-20 03:22N 36°27' E 026°47'910.4
2014-Dec-20 02:32N 36°34' E 026°40'1010.2
2014-Dec-20 01:33N 36°41' E 026°31'1210.5
2014-Dec-20 00:26N 36°49' E 026°20'1010.4
2014-Dec-19 23:25N 36°57' E 026°13'910.3
2014-Dec-19 22:33N 37°05' E 026°07'1110.6
2014-Dec-19 21:33N 37°15' E 026°01'1110.6
2014-Dec-19 20:33N 37°24' E 025°56'1110.8
2014-Dec-19 19:33N 37°34' E 025°50'1110.6
2014-Dec-19 18:33N 37°43' E 025°44'1110.6
2014-Dec-19 17:32N 37°53' E 025°38'12410.1
2014-Dec-19 05:10N 39°57' E 025°52'13910.2
2014-Dec-18 15:29N 40°53' E 028°39'1110.6
2014-Dec-18 14:29N 40°55' E 028°53'  

Dump ship's entire track history